sensor_id;sensor_type;location;lat;lon;timestamp;pressure;altitude;pressure_sealevel;temperature;humidity
48630;BME280;34426;52.180;4.462;2023-02-18T00:00:05;102297.25;;;9.36;92.27
48630;BME280;34426;52.180;4.462;2023-02-18T00:02:33;102285.63;;;9.39;92.41
48630;BME280;34426;52.180;4.462;2023-02-18T00:05:03;102278.09;;;9.39;91.97
48630;BME280;34426;52.180;4.462;2023-02-18T00:07:34;102291.22;;;9.39;92.30
48630;BME280;34426;52.180;4.462;2023-02-18T00:10:02;102289.06;;;9.41;92.38
48630;BME280;34426;52.180;4.462;2023-02-18T00:12:30;102276.56;;;9.43;92.55
48630;BME280;34426;52.180;4.462;2023-02-18T00:14:58;102280.00;;;9.45;92.45
48630;BME280;34426;52.180;4.462;2023-02-18T00:17:26;102276.13;;;9.46;92.38
48630;BME280;34426;52.180;4.462;2023-02-18T00:19:54;102276.13;;;9.46;92.14
48630;BME280;34426;52.180;4.462;2023-02-18T00:22:23;102278.91;;;9.46;92.59
48630;BME280;34426;52.180;4.462;2023-02-18T00:24:52;102276.97;;;9.47;92.70
48630;BME280;34426;52.180;4.462;2023-02-18T00:27:19;102264.97;;;9.46;91.95
48630;BME280;34426;52.180;4.462;2023-02-18T00:29:46;102264.72;;;9.48;91.85
48630;BME280;34426;52.180;4.462;2023-02-18T00:32:14;102270.53;;;9.46;92.58
48630;BME280;34426;52.180;4.462;2023-02-18T00:34:42;102269.47;;;9.47;92.34
48630;BME280;34426;52.180;4.462;2023-02-18T00:37:09;102270.94;;;9.50;92.76
48630;BME280;34426;52.180;4.462;2023-02-18T00:39:39;102268.16;;;9.50;92.84
48630;BME280;34426;52.180;4.462;2023-02-18T00:42:07;102258.84;;;9.56;92.69
48630;BME280;34426;52.180;4.462;2023-02-18T00:44:34;102266.13;;;9.57;92.71
48630;BME280;34426;52.180;4.462;2023-02-18T00:47:03;102260.94;;;9.60;93.06
48630;BME280;34426;52.180;4.462;2023-02-18T00:49:31;102264.59;;;9.61;92.31
48630;BME280;34426;52.180;4.462;2023-02-18T00:51:59;102261.81;;;9.61;93.33
48630;BME280;34426;52.180;4.462;2023-02-18T00:54:27;102259.88;;;9.61;92.37
48630;BME280;34426;52.180;4.462;2023-02-18T00:56:57;102253.44;;;9.61;93.27
48630;BME280;34426;52.180;4.462;2023-02-18T00:59:26;102254.50;;;9.60;92.76
48630;BME280;34426;52.180;4.462;2023-02-18T01:01:53;102252.56;;;9.60;93.05
48630;BME280;34426;52.180;4.462;2023-02-18T01:04:21;102251.50;;;9.61;92.56
48630;BME280;34426;52.180;4.462;2023-02-18T01:06:48;102241.41;;;9.60;92.82
48630;BME280;34426;52.180;4.462;2023-02-18T01:09:16;102233.03;;;9.60;93.27
48630;BME280;34426;52.180;4.462;2023-02-18T01:11:43;102245.06;;;9.61;94.05
48630;BME280;34426;52.180;4.462;2023-02-18T01:14:12;102241.16;;;9.62;93.86
48630;BME280;34426;52.180;4.462;2023-02-18T01:16:40;102226.97;;;9.63;93.89
48630;BME280;34426;52.180;4.462;2023-02-18T01:19:08;102227.22;;;9.62;93.74
48630;BME280;34426;52.180;4.462;2023-02-18T01:21:35;102239.00;;;9.64;94.00
48630;BME280;34426;52.180;4.462;2023-02-18T01:24:03;102217.50;;;9.64;93.90
48630;BME280;34426;52.180;4.462;2023-02-18T01:26:30;102211.06;;;9.64;94.11
48630;BME280;34426;52.180;4.462;2023-02-18T01:28:58;102223.97;;;9.65;93.67
48630;BME280;34426;52.180;4.462;2023-02-18T01:31:27;102207.19;;;9.65;93.71
48630;BME280;34426;52.180;4.462;2023-02-18T01:33:55;102209.75;;;9.66;94.07
48630;BME280;34426;52.180;4.462;2023-02-18T01:36:22;102216.84;;;9.69;94.00
48630;BME280;34426;52.180;4.462;2023-02-18T01:38:50;102197.66;;;9.73;93.79
48630;BME280;34426;52.180;4.462;2023-02-18T01:41:17;102209.72;;;9.73;94.22
48630;BME280;34426;52.180;4.462;2023-02-18T01:43:45;102188.22;;;9.74;94.41
48630;BME280;34426;52.180;4.462;2023-02-18T01:46:18;102189.47;;;9.78;93.97
48630;BME280;34426;52.180;4.462;2023-02-18T01:48:50;102191.41;;;9.77;93.95
48630;BME280;34426;52.180;4.462;2023-02-18T01:51:22;102195.44;;;9.81;93.61
48630;BME280;34426;52.180;4.462;2023-02-18T01:53:54;102190.47;;;9.83;93.84
48630;BME280;34426;52.180;4.462;2023-02-18T01:56:25;102193.28;;;9.83;93.85
48630;BME280;34426;52.180;4.462;2023-02-18T01:58:55;102173.94;;;9.82;93.22
48630;BME280;34426;52.180;4.462;2023-02-18T02:01:24;102171.38;;;9.80;93.79
48630;BME280;34426;52.180;4.462;2023-02-18T02:03:54;102168.59;;;9.80;93.49
48630;BME280;34426;52.180;4.462;2023-02-18T02:06:22;102157.41;;;9.80;93.84
48630;BME280;34426;52.180;4.462;2023-02-18T02:08:52;102152.44;;;9.82;94.32
48630;BME280;34426;52.180;4.462;2023-02-18T02:11:40;102155.00;;;9.84;94.13
48630;BME280;34426;52.180;4.462;2023-02-18T02:14:22;102149.19;;;9.85;94.36
48630;BME280;34426;52.180;4.462;2023-02-18T02:16:56;102140.34;;;9.88;94.23
48630;BME280;34426;52.180;4.462;2023-02-18T02:25:55;102116.56;;;9.97;94.07
48630;BME280;34426;52.180;4.462;2023-02-18T02:28:52;102113.31;;;10.00;93.88
48630;BME280;34426;52.180;4.462;2023-02-18T02:31:58;102095.44;;;10.01;94.20
48630;BME280;34426;52.180;4.462;2023-02-18T02:34:49;102074.31;;;10.06;94.02
48630;BME280;34426;52.180;4.462;2023-02-18T02:37:25;102079.44;;;10.09;94.13
48630;BME280;34426;52.180;4.462;2023-02-18T02:40:01;102069.50;;;10.13;93.62
48630;BME280;34426;52.180;4.462;2023-02-18T02:42:40;102067.09;;;10.16;93.28
48630;BME280;34426;52.180;4.462;2023-02-18T02:45:17;102063.44;;;10.16;93.29
48630;BME280;34426;52.180;4.462;2023-02-18T02:47:53;102067.72;;;10.18;93.13
48630;BME280;34426;52.180;4.462;2023-02-18T02:50:27;102064.72;;;10.20;93.21
48630;BME280;34426;52.180;4.462;2023-02-18T02:53:01;102070.31;;;10.20;93.12
48630;BME280;34426;52.180;4.462;2023-02-18T02:55:30;102067.28;;;10.21;93.26
48630;BME280;34426;52.180;4.462;2023-02-18T02:57:58;102066.41;;;10.21;93.44
48630;BME280;34426;52.180;4.462;2023-02-18T03:00:36;102057.38;;;10.19;93.79
48630;BME280;34426;52.180;4.462;2023-02-18T03:03:21;102050.09;;;10.18;93.86
48630;BME280;34426;52.180;4.462;2023-02-18T03:06:14;102046.06;;;10.14;94.11
48630;BME280;34426;52.180;4.462;2023-02-18T03:08:55;102048.22;;;10.12;94.12
48630;BME280;34426;52.180;4.462;2023-02-18T03:11:29;102030.84;;;10.10;94.49
48630;BME280;34426;52.180;4.462;2023-02-18T03:14:09;102021.44;;;10.04;94.57
48630;BME280;34426;52.180;4.462;2023-02-18T03:16:44;102016.31;;;10.01;94.89
48630;BME280;34426;52.180;4.462;2023-02-18T03:19:19;102023.25;;;9.98;94.52
48630;BME280;34426;52.180;4.462;2023-02-18T03:21:54;102013.66;;;9.94;94.95
48630;BME280;34426;52.180;4.462;2023-02-18T03:24:26;102016.44;;;9.94;95.29
48630;BME280;34426;52.180;4.462;2023-02-18T03:26:57;102008.53;;;9.91;95.17
48630;BME280;34426;52.180;4.462;2023-02-18T03:29:26;102014.81;;;9.87;95.45
48630;BME280;34426;52.180;4.462;2023-02-18T03:31:58;102003.03;;;9.85;95.21
48630;BME280;34426;52.180;4.462;2023-02-18T03:34:30;102004.34;;;9.82;95.32
48630;BME280;34426;52.180;4.462;2023-02-18T03:37:01;102001.56;;;9.82;95.35
48630;BME280;34426;52.180;4.462;2023-02-18T03:39:29;101994.03;;;9.83;95.53
48630;BME280;34426;52.180;4.462;2023-02-18T03:41:58;101996.34;;;9.86;95.59
48630;BME280;34426;52.180;4.462;2023-02-18T03:44:26;101986.50;;;9.83;95.77
48630;BME280;34426;52.180;4.462;2023-02-18T03:46:54;101983.09;;;9.81;95.81
48630;BME280;34426;52.180;4.462;2023-02-18T03:49:22;101980.53;;;9.80;95.16
48630;BME280;34426;52.180;4.462;2023-02-18T03:51:49;101981.84;;;9.77;95.01
48630;BME280;34426;52.180;4.462;2023-02-18T03:54:18;101985.34;;;9.73;95.03
48630;BME280;34426;52.180;4.462;2023-02-18T03:56:46;101985.34;;;9.73;94.84
48630;BME280;34426;52.180;4.462;2023-02-18T03:59:13;101992.63;;;9.74;95.30
48630;BME280;34426;52.180;4.462;2023-02-18T04:01:41;101987.03;;;9.74;95.41
48630;BME280;34426;52.180;4.462;2023-02-18T04:04:08;101981.69;;;9.72;94.90
48630;BME280;34426;52.180;4.462;2023-02-18T04:06:37;101972.69;;;9.70;95.06
48630;BME280;34426;52.180;4.462;2023-02-18T04:09:05;101975.47;;;9.70;94.54
48630;BME280;34426;52.180;4.462;2023-02-18T04:11:36;101968.19;;;9.69;94.23
48630;BME280;34426;52.180;4.462;2023-02-18T04:14:04;101973.16;;;9.67;94.69
48630;BME280;34426;52.180;4.462;2023-02-18T04:16:31;101958.09;;;9.68;94.44
48630;BME280;34426;52.180;4.462;2023-02-18T04:18:58;101960.91;;;9.68;94.66
48630;BME280;34426;52.180;4.462;2023-02-18T04:21:26;101960.91;;;9.68;94.03
48630;BME280;34426;52.180;4.462;2023-02-18T04:23:53;101959.81;;;9.69;94.95
48630;BME280;34426;52.180;4.462;2023-02-18T04:26:20;101950.34;;;9.70;93.99
48630;BME280;34426;52.180;4.462;2023-02-18T04:28:50;101940.63;;;9.73;94.28
48630;BME280;34426;52.180;4.462;2023-02-18T04:31:18;101939.78;;;9.72;94.68
48630;BME280;34426;52.180;4.462;2023-02-18T04:33:48;101932.03;;;9.74;94.35
48630;BME280;34426;52.180;4.462;2023-02-18T04:36:15;101921.31;;;9.71;94.68
48630;BME280;34426;52.180;4.462;2023-02-18T04:38:43;101914.03;;;9.70;94.21
48630;BME280;34426;52.180;4.462;2023-02-18T04:41:10;101925.66;;;9.67;94.66
48630;BME280;34426;52.180;4.462;2023-02-18T04:43:38;101913.03;;;9.64;94.45
48630;BME280;34426;52.180;4.462;2023-02-18T04:46:07;101925.91;;;9.65;95.34
48630;BME280;34426;52.180;4.462;2023-02-18T04:48:34;101917.53;;;9.65;95.33
48630;BME280;34426;52.180;4.462;2023-02-18T04:51:02;101917.53;;;9.65;94.91
48630;BME280;34426;52.180;4.462;2023-02-18T04:53:30;101921.16;;;9.66;94.96
48630;BME280;34426;52.180;4.462;2023-02-18T04:55:57;101920.09;;;9.67;94.81
48630;BME280;34426;52.180;4.462;2023-02-18T04:58:25;101914.72;;;9.65;94.69
48630;BME280;34426;52.180;4.462;2023-02-18T05:00:53;101931.25;;;9.67;93.96
48630;BME280;34426;52.180;4.462;2023-02-18T05:03:26;101926.13;;;9.64;94.03
48630;BME280;34426;52.180;4.462;2023-02-18T05:05:53;101905.97;;;9.62;94.37
48630;BME280;34426;52.180;4.462;2023-02-18T05:08:21;101926.13;;;9.64;93.65
48630;BME280;34426;52.180;4.462;2023-02-18T05:10:50;101919.94;;;9.62;94.26
48630;BME280;34426;52.180;4.462;2023-02-18T05:13:18;101902.56;;;9.60;94.31
48630;BME280;34426;52.180;4.462;2023-02-18T05:15:46;101911.56;;;9.62;93.71
48630;BME280;34426;52.180;4.462;2023-02-18T05:18:13;101892.63;;;9.64;94.69
48630;BME280;34426;52.180;4.462;2023-02-18T05:20:43;101904.16;;;9.67;93.88
48630;BME280;34426;52.180;4.462;2023-02-18T05:23:10;101905.66;;;9.70;94.23
48630;BME280;34426;52.180;4.462;2023-02-18T05:25:38;101910.16;;;9.71;93.98
48630;BME280;34426;52.180;4.462;2023-02-18T05:28:05;101906.25;;;9.72;94.22
48630;BME280;34426;52.180;4.462;2023-02-18T05:30:33;101874.44;;;9.73;93.22
48630;BME280;34426;52.180;4.462;2023-02-18T05:33:00;101880.41;;;9.77;93.14
48630;BME280;34426;52.180;4.462;2023-02-18T05:35:28;101885.16;;;9.76;93.18
48630;BME280;34426;52.180;4.462;2023-02-18T05:37:57;101888.56;;;9.78;93.36
48630;BME280;34426;52.180;4.462;2023-02-18T05:40:24;101882.97;;;9.78;93.04
48630;BME280;34426;52.180;4.462;2023-02-18T05:42:51;101873.50;;;9.79;93.46
48630;BME280;34426;52.180;4.462;2023-02-18T05:45:19;101891.97;;;9.80;93.43
48630;BME280;34426;52.180;4.462;2023-02-18T05:47:46;101877.38;;;9.78;92.97
48630;BME280;34426;52.180;4.462;2023-02-18T05:50:17;101875.66;;;9.77;93.58
48630;BME280;34426;52.180;4.462;2023-02-18T05:52:44;101881.88;;;9.79;93.13
48630;BME280;34426;52.180;4.462;2023-02-18T05:55:13;101865.59;;;9.76;92.95
48630;BME280;34426;52.180;4.462;2023-02-18T05:57:40;101878.69;;;9.76;93.06
48630;BME280;34426;52.180;4.462;2023-02-18T06:00:08;101884.28;;;9.76;92.62
48630;BME280;34426;52.180;4.462;2023-02-18T06:02:36;101900.19;;;9.75;92.69
48630;BME280;34426;52.180;4.462;2023-02-18T06:05:04;101863.25;;;9.73;92.57
48630;BME280;34426;52.180;4.462;2023-02-18T06:07:31;101892.53;;;9.71;92.97
48630;BME280;34426;52.180;4.462;2023-02-18T06:09:59;101881.59;;;9.69;93.20
48630;BME280;34426;52.180;4.462;2023-02-18T06:12:28;101884.38;;;9.69;92.66
48630;BME280;34426;52.180;4.462;2023-02-18T06:14:56;101884.84;;;9.66;92.80
48630;BME280;34426;52.180;4.462;2023-02-18T06:17:24;101894.31;;;9.65;91.78
48630;BME280;34426;52.180;4.462;2023-02-18T06:19:51;101889.22;;;9.62;92.16
48630;BME280;34426;52.180;4.462;2023-02-18T06:22:18;101887.97;;;9.58;91.99
48630;BME280;34426;52.180;4.462;2023-02-18T06:24:45;101889.06;;;9.57;92.46
48630;BME280;34426;52.180;4.462;2023-02-18T06:27:13;101887.13;;;9.57;92.58
48630;BME280;34426;52.180;4.462;2023-02-18T06:29:42;101892.09;;;9.55;91.94
48630;BME280;34426;52.180;4.462;2023-02-18T06:32:09;101885.88;;;9.53;92.23
48630;BME280;34426;52.180;4.462;2023-02-18T06:34:37;101905.69;;;9.52;92.30
48630;BME280;34426;52.180;4.462;2023-02-18T06:37:04;101892.31;;;9.54;92.24
48630;BME280;34426;52.180;4.462;2023-02-18T06:39:31;101894.16;;;9.48;91.80
48630;BME280;34426;52.180;4.462;2023-02-18T06:41:59;101891.59;;;9.47;91.98
48630;BME280;34426;52.180;4.462;2023-02-18T06:44:26;101873.97;;;9.46;92.14
48630;BME280;34426;52.180;4.462;2023-02-18T06:46:56;101869.25;;;9.47;92.18
48630;BME280;34426;52.180;4.462;2023-02-18T06:49:24;101873.13;;;9.46;92.42
48630;BME280;34426;52.180;4.462;2023-02-18T06:51:51;101871.66;;;9.43;92.37
48630;BME280;34426;52.180;4.462;2023-02-18T06:54:19;101881.34;;;9.41;92.42
48630;BME280;34426;52.180;4.462;2023-02-18T06:56:46;101902.47;;;9.37;91.85
48630;BME280;34426;52.180;4.462;2023-02-18T06:59:14;101884.00;;;9.36;91.84
48630;BME280;34426;52.180;4.462;2023-02-18T07:01:41;101864.91;;;9.32;91.66
48630;BME280;34426;52.180;4.462;2023-02-18T07:04:10;101876.56;;;9.29;91.36
48630;BME280;34426;52.180;4.462;2023-02-18T07:06:37;101879.59;;;9.28;91.26
48630;BME280;34426;52.180;4.462;2023-02-18T07:09:05;101872.53;;;9.25;91.34
48630;BME280;34426;52.180;4.462;2023-02-18T07:11:33;101863.06;;;9.26;90.80
48630;BME280;34426;52.180;4.462;2023-02-18T07:14:00;101868.66;;;9.26;90.65
48630;BME280;34426;52.180;4.462;2023-02-18T07:16:27;101870.59;;;9.26;89.68
48630;BME280;34426;52.180;4.462;2023-02-18T07:18:55;101869.72;;;9.25;89.85
48630;BME280;34426;52.180;4.462;2023-02-18T07:21:24;101867.78;;;9.26;89.70
48630;BME280;34426;52.180;4.462;2023-02-18T07:23:51;101859.81;;;9.29;88.99
48630;BME280;34426;52.180;4.462;2023-02-18T07:26:19;101863.91;;;9.27;89.13
48630;BME280;34426;52.180;4.462;2023-02-18T07:28:46;101863.69;;;9.28;88.95
48630;BME280;34426;52.180;4.462;2023-02-18T07:31:13;101856.00;;;9.24;89.94
48630;BME280;34426;52.180;4.462;2023-02-18T07:33:40;101858.50;;;9.14;89.90
48630;BME280;34426;52.180;4.462;2023-02-18T07:36:08;101861.63;;;9.06;90.39
48630;BME280;34426;52.180;4.462;2023-02-18T07:38:38;101867.91;;;9.01;90.62
48630;BME280;34426;52.180;4.462;2023-02-18T07:41:05;101869.91;;;8.94;91.74
48630;BME280;34426;52.180;4.462;2023-02-18T07:43:32;101866.13;;;8.88;92.03
48630;BME280;34426;52.180;4.462;2023-02-18T07:46:03;101869.59;;;8.84;91.50
48630;BME280;34426;52.180;4.462;2023-02-18T07:48:31;101867.72;;;8.78;91.89
48630;BME280;34426;52.180;4.462;2023-02-18T07:50:56;101858.13;;;8.74;92.09
48630;BME280;34426;52.180;4.462;2023-02-18T07:53:24;101865.41;;;8.75;91.61
48630;BME280;34426;52.180;4.462;2023-02-18T07:55:53;101864.56;;;8.74;91.62
48630;BME280;34426;52.180;4.462;2023-02-18T07:58:21;101864.56;;;8.74;91.08
48630;BME280;34426;52.180;4.462;2023-02-18T08:00:49;101881.06;;;8.76;90.59
48630;BME280;34426;52.180;4.462;2023-02-18T08:03:17;101875.03;;;8.79;90.46
48630;BME280;34426;52.180;4.462;2023-02-18T08:05:46;101872.00;;;8.80;89.65
48630;BME280;34426;52.180;4.462;2023-02-18T08:08:14;101870.47;;;8.84;89.41
48630;BME280;34426;52.180;4.462;2023-02-18T08:10:42;101869.13;;;8.87;88.97
48630;BME280;34426;52.180;4.462;2023-02-18T08:13:11;101883.72;;;8.89;89.02
48630;BME280;34426;52.180;4.462;2023-02-18T08:15:39;101874.25;;;8.90;89.17
48630;BME280;34426;52.180;4.462;2023-02-18T08:18:07;101863.72;;;8.92;88.95
48630;BME280;34426;52.180;4.462;2023-02-18T08:20:36;101869.06;;;8.93;87.86
48630;BME280;34426;52.180;4.462;2023-02-18T08:23:04;101875.03;;;8.97;87.78
48630;BME280;34426;52.180;4.462;2023-02-18T08:25:32;101868.16;;;8.99;88.46
48630;BME280;34426;52.180;4.462;2023-02-18T08:27:59;101905.91;;;9.02;87.90
48630;BME280;34426;52.180;4.462;2023-02-18T08:30:28;101861.63;;;9.06;87.70
48630;BME280;34426;52.180;4.462;2023-02-18T08:32:55;101872.69;;;9.12;87.56
48630;BME280;34426;52.180;4.462;2023-02-18T08:35:23;101864.06;;;9.14;86.85
48630;BME280;34426;52.180;4.462;2023-02-18T08:37:51;101874.16;;;9.15;87.54
48630;BME280;34426;52.180;4.462;2023-02-18T08:40:18;101875.16;;;9.20;86.85
48630;BME280;34426;52.180;4.462;2023-02-18T08:42:46;101888.81;;;9.28;86.90
48630;BME280;34426;52.180;4.462;2023-02-18T08:45:13;101868.19;;;9.29;87.11
48630;BME280;34426;52.180;4.462;2023-02-18T08:47:43;101879.72;;;9.33;86.84
48630;BME280;34426;52.180;4.462;2023-02-18T08:50:09;101885.09;;;9.34;87.37
48630;BME280;34426;52.180;4.462;2023-02-18T08:52:37;101891.84;;;9.27;86.97
48630;BME280;34426;52.180;4.462;2023-02-18T08:55:04;101895.09;;;9.24;87.56
48630;BME280;34426;52.180;4.462;2023-02-18T08:57:32;101891.28;;;9.18;86.70
48630;BME280;34426;52.180;4.462;2023-02-18T08:59:59;101905.25;;;9.18;87.38
48630;BME280;34426;52.180;4.462;2023-02-18T09:02:27;101908.03;;;9.18;86.28
48630;BME280;34426;52.180;4.462;2023-02-18T09:04:56;101915.34;;;9.19;86.62
48630;BME280;34426;52.180;4.462;2023-02-18T09:07:23;101915.50;;;9.24;85.91
48630;BME280;34426;52.180;4.462;2023-02-18T09:09:51;101922.78;;;9.25;86.77
48630;BME280;34426;52.180;4.462;2023-02-18T09:12:19;101922.78;;;9.25;86.60
48630;BME280;34426;52.180;4.462;2023-02-18T09:14:48;101939.53;;;9.25;87.11
48630;BME280;34426;52.180;4.462;2023-02-18T09:17:15;101921.06;;;9.24;86.76
48630;BME280;34426;52.180;4.462;2023-02-18T09:19:42;101945.88;;;9.32;86.46
48630;BME280;34426;52.180;4.462;2023-02-18T09:22:11;101915.63;;;9.29;86.30
48630;BME280;34426;52.180;4.462;2023-02-18T09:24:40;101935.09;;;9.36;85.56
48630;BME280;34426;52.180;4.462;2023-02-18T09:27:08;101919.22;;;9.37;85.46
48630;BME280;34426;52.180;4.462;2023-02-18T09:29:38;101946.19;;;9.43;85.75
48630;BME280;34426;52.180;4.462;2023-02-18T09:32:06;101947.81;;;9.50;85.85
48630;BME280;34426;52.180;4.462;2023-02-18T09:34:34;101939.81;;;9.54;85.32
48630;BME280;34426;52.180;4.462;2023-02-18T09:37:05;101927.53;;;9.55;85.68
48630;BME280;34426;52.180;4.462;2023-02-18T09:39:34;101927.06;;;9.58;85.15
48630;BME280;34426;52.180;4.462;2023-02-18T09:42:03;101942.44;;;9.67;85.00
48630;BME280;34426;52.180;4.462;2023-02-18T09:44:35;101950.34;;;9.70;84.49
48630;BME280;34426;52.180;4.462;2023-02-18T09:47:08;101952.84;;;9.60;84.44
48630;BME280;34426;52.180;4.462;2023-02-18T09:49:40;101965.25;;;9.64;85.29
48630;BME280;34426;52.180;4.462;2023-02-18T09:52:19;101952.84;;;9.60;85.44
48630;BME280;34426;52.180;4.462;2023-02-18T09:54:53;101952.84;;;9.60;85.50
48630;BME280;34426;52.180;4.462;2023-02-18T09:57:24;101954.53;;;9.61;85.39
48630;BME280;34426;52.180;4.462;2023-02-18T09:59:57;101958.66;;;9.58;85.33
48630;BME280;34426;52.180;4.462;2023-02-18T10:02:26;101965.25;;;9.64;84.71
48630;BME280;34426;52.180;4.462;2023-02-18T10:04:55;101973.41;;;9.65;84.93
48630;BME280;34426;52.180;4.462;2023-02-18T10:07:25;101984.50;;;9.72;85.10
48630;BME280;34426;52.180;4.462;2023-02-18T10:09:58;101976.03;;;9.79;85.28
48630;BME280;34426;52.180;4.462;2023-02-18T10:12:29;101981.38;;;9.80;84.61
48630;BME280;34426;52.180;4.462;2023-02-18T10:15:00;101946.53;;;9.83;84.61
48630;BME280;34426;52.180;4.462;2023-02-18T10:17:28;101969.50;;;9.85;84.23
48630;BME280;34426;52.180;4.462;2023-02-18T10:19:58;101977.03;;;9.84;84.47
48630;BME280;34426;52.180;4.462;2023-02-18T10:22:26;101971.06;;;9.81;84.23
48630;BME280;34426;52.180;4.462;2023-02-18T10:24:58;101985.56;;;9.71;84.77
48630;BME280;34426;52.180;4.462;2023-02-18T10:27:28;101972.84;;;9.75;84.40
48630;BME280;34426;52.180;4.462;2023-02-18T10:30:01;101987.81;;;9.81;85.02
48630;BME280;34426;52.180;4.462;2023-02-18T10:32:36;101989.44;;;9.88;84.75
48630;BME280;34426;52.180;4.462;2023-02-18T10:35:14;101996.72;;;9.89;84.63
48630;BME280;34426;52.180;4.462;2023-02-18T10:37:51;101988.19;;;9.84;84.50
48630;BME280;34426;52.180;4.462;2023-02-18T10:40:28;101994.88;;;9.83;84.62
48630;BME280;34426;52.180;4.462;2023-02-18T10:43:06;101994.50;;;9.80;84.65
48630;BME280;34426;52.180;4.462;2023-02-18T10:45:43;101992.09;;;9.83;84.81
48630;BME280;34426;52.180;4.462;2023-02-18T10:48:33;101986.97;;;9.80;84.78
48630;BME280;34426;52.180;4.462;2023-02-18T10:51:13;101990.94;;;9.73;85.36
48630;BME280;34426;52.180;4.462;2023-02-18T10:53:42;102000.63;;;9.70;85.48
48630;BME280;34426;52.180;4.462;2023-02-18T10:56:32;101999.31;;;9.73;85.12
48630;BME280;34426;52.180;4.462;2023-02-18T10:59:04;102029.19;;;9.72;84.80
48630;BME280;34426;52.180;4.462;2023-02-18T11:01:35;101992.25;;;9.70;85.56
48630;BME280;34426;52.180;4.462;2023-02-18T11:04:11;102008.16;;;9.70;85.45
48630;BME280;34426;52.180;4.462;2023-02-18T11:06:40;102009.78;;;9.77;85.07
48630;BME280;34426;52.180;4.462;2023-02-18T11:09:28;101994.72;;;9.78;85.63
48630;BME280;34426;52.180;4.462;2023-02-18T11:12:03;102008.00;;;9.83;84.91
48630;BME280;34426;52.180;4.462;2023-02-18T11:14:41;102004.50;;;9.87;85.05
48630;BME280;34426;52.180;4.462;2023-02-18T11:17:30;101995.78;;;9.95;85.27
48630;BME280;34426;52.180;4.462;2023-02-18T11:19:59;101993.13;;;10.00;84.51
48630;BME280;34426;52.180;4.462;2023-02-18T11:22:29;101996.06;;;10.06;84.64
48630;BME280;34426;52.180;4.462;2023-02-18T11:24:57;102007.72;;;10.02;84.21
48630;BME280;34426;52.180;4.462;2023-02-18T11:27:31;102004.69;;;10.04;84.82
48630;BME280;34426;52.180;4.462;2023-02-18T11:30:05;102011.75;;;10.07;84.44
48630;BME280;34426;52.180;4.462;2023-02-18T11:32:35;101999.00;;;10.11;84.82
48630;BME280;34426;52.180;4.462;2023-02-18T11:35:03;101985.63;;;10.13;84.56
48630;BME280;34426;52.180;4.462;2023-02-18T11:37:32;102004.50;;;10.17;84.09
48630;BME280;34426;52.180;4.462;2023-02-18T11:40:02;102015.16;;;10.27;84.57
48630;BME280;34426;52.180;4.462;2023-02-18T11:42:32;101988.31;;;10.38;83.83
48630;BME280;34426;52.180;4.462;2023-02-18T11:45:00;102031.22;;;10.43;83.71
48630;BME280;34426;52.180;4.462;2023-02-18T11:47:32;101991.88;;;10.56;82.98
48630;BME280;34426;52.180;4.462;2023-02-18T11:50:03;101981.81;;;10.79;81.76
48630;BME280;34426;52.180;4.462;2023-02-18T11:52:34;101983.88;;;10.95;81.93
48630;BME280;34426;52.180;4.462;2023-02-18T11:55:03;101988.38;;;11.08;81.15
48630;BME280;34426;52.180;4.462;2023-02-18T11:57:34;101966.44;;;11.28;80.51
48630;BME280;34426;52.180;4.462;2023-02-18T12:00:04;101996.38;;;11.39;80.16
48630;BME280;34426;52.180;4.462;2023-02-18T12:02:33;101986.88;;;11.40;79.92
48630;BME280;34426;52.180;4.462;2023-02-18T12:05:04;101996.63;;;11.38;79.90
48630;BME280;34426;52.180;4.462;2023-02-18T12:07:42;101982.19;;;11.17;80.06
48630;BME280;34426;52.180;4.462;2023-02-18T12:12:46;101996.16;;;10.94;80.94
48630;BME280;34426;52.180;4.462;2023-02-18T12:15:16;101971.72;;;11.01;81.53
48630;BME280;34426;52.180;4.462;2023-02-18T12:18:00;101949.44;;;10.94;81.60
48630;BME280;34426;52.180;4.462;2023-02-18T12:20:47;101983.63;;;10.85;81.30
48630;BME280;34426;52.180;4.462;2023-02-18T12:23:24;101984.84;;;10.89;81.49
48630;BME280;34426;52.180;4.462;2023-02-18T12:25:56;102022.31;;;10.88;81.50
48630;BME280;34426;52.180;4.462;2023-02-18T12:28:44;101980.25;;;10.83;82.08
48630;BME280;34426;52.180;4.462;2023-02-18T12:34:46;101976.69;;;10.87;81.52
48630;BME280;34426;52.180;4.462;2023-02-18T12:37:47;101979.75;;;11.09;81.00
48630;BME280;34426;52.180;4.462;2023-02-18T12:40:40;101992.16;;;11.13;80.90
48630;BME280;34426;52.180;4.462;2023-02-18T12:43:19;101988.63;;;11.18;80.26
48630;BME280;34426;52.180;4.462;2023-02-18T12:49:04;101978.78;;;11.15;80.51
48630;BME280;34426;52.180;4.462;2023-02-18T12:51:42;102008.22;;;11.29;80.69
48630;BME280;34426;52.180;4.462;2023-02-18T12:54:27;101987.53;;;11.07;80.96
48630;BME280;34426;52.180;4.462;2023-02-18T12:57:13;101991.44;;;11.06;81.02
48630;BME280;34426;52.180;4.462;2023-02-18T13:00:02;101989.09;;;10.91;81.25
48630;BME280;34426;52.180;4.462;2023-02-18T13:02:54;101998.22;;;10.87;81.37
48630;BME280;34426;52.180;4.462;2023-02-18T13:05:31;102001.41;;;11.02;81.01
48630;BME280;34426;52.180;4.462;2023-02-18T13:08:23;101996.78;;;10.96;81.36
48630;BME280;34426;52.180;4.462;2023-02-18T13:11:12;102006.13;;;10.90;81.17
48630;BME280;34426;52.180;4.462;2023-02-18T13:13:50;101993.84;;;10.91;81.18
48630;BME280;34426;52.180;4.462;2023-02-18T13:16:21;102007.84;;;10.91;81.60
48630;BME280;34426;52.180;4.462;2023-02-18T13:18:57;102006.03;;;10.96;81.00
48630;BME280;34426;52.180;4.462;2023-02-18T13:21:28;102001.03;;;10.98;81.09
48630;BME280;34426;52.180;4.462;2023-02-18T13:23:58;101980.84;;;11.08;81.01
48630;BME280;34426;52.180;4.462;2023-02-18T13:26:29;102012.50;;;11.20;80.27
48630;BME280;34426;52.180;4.462;2023-02-18T13:29:09;102004.22;;;11.25;80.11
48630;BME280;34426;52.180;4.462;2023-02-18T13:31:45;102002.50;;;11.13;80.45